Terminal Aerodrome Forecast
Issued by NWS Sterling, VA

Current Version | Previous Version | Text Only | Print | Product List | Glossary On
Versions: 1 2 3 4 5 6 7 8 9 10 11 12 13 14 15 16 17 18 19 20 21 22 23 24 25
000
FTUS41 KLWX 171502 AAA
TAFIAD
TAF AMD
KIAD 171502Z 1715/1818 33010KT P6SM FEW040 FEW250
     FM171900 31006KT P6SM FEW150 FEW250
     FM172300 VRB03KT P6SM FEW150 SCT250
     FM180500 18006KT P6SM FEW150 SCT250
     FM181200 19012KT P6SM SCT130 OVC250=

USA.gov is the U.S. government's official web portal to all federal, state and local government web resources and services.